Time,TemperatureF,DewpointF,PressureIn,WindDirection,WindDirectionDegrees,WindSpeedMPH,WindSpeedGustMPH,Humidity,HourlyPrecipIn,Conditions,Clouds,dailyrainin,SolarRadiationWatts/m^2,SoftwareType,DateUTC
2013-06-07 00:00:00,77.7,74.2,29.81,SSW,204,13.0,13.0,89,0.00,,,0.00,0,Wunderground v.1.15,2013-06-07 04:00:00,
2013-06-07 00:30:00,78.0,74.5,29.82,SW,229,14.0,14.0,89,0.00,,,0.00,0,Wunderground v.1.15,2013-06-07 04:30:00,
2013-06-07 01:00:00,78.2,73.7,29.81,WSW,251,15.0,15.0,86,0.00,,,0.00,0,Wunderground v.1.15,2013-06-07 05:00:00,
2013-06-07 01:30:00,78.2,73.7,29.80,WSW,253,15.0,15.0,86,0.00,,,0.00,0,Wunderground v.1.15,2013-06-07 05:30:00,
2013-06-07 02:00:00,78.0,73.8,29.80,WSW,238,14.0,14.0,87,0.00,,,0.00,0,Wunderground v.1.15,2013-06-07 06:00:00,
2013-06-07 02:30:00,77.9,73.7,29.80,SW,235,13.0,15.0,87,0.00,,,0.00,0,Wunderground v.1.15,2013-06-07 06:30:00,
2013-06-07 03:00:00,77.7,73.5,29.80,WSW,250,9.0,12.0,87,0.00,,,0.00,0,Wunderground v.1.15,2013-06-07 07:00:00,
2013-06-07 03:30:00,77.6,73.4,29.79,WSW,244,10.0,11.0,87,0.00,,,0.00,0,Wunderground v.1.15,2013-06-07 07:30:00,
2013-06-07 04:00:00,77.5,73.7,29.79,West,260,10.0,10.0,88,0.00,,,0.00,0,Wunderground v.1.15,2013-06-07 08:00:00,
2013-06-07 04:30:00,77.5,73.7,29.79,WSW,237,9.0,10.0,88,0.00,,,0.00,0,Wunderground v.1.15,2013-06-07 08:30:00,
2013-06-07 05:00:00,77.6,73.8,29.81,WSW,242,9.0,9.0,88,0.00,,,0.00,0,Wunderground v.1.15,2013-06-07 09:00:00,
2013-06-07 05:30:00,77.5,73.7,29.82,WSW,237,8.0,10.0,88,0.00,,,0.00,0,Wunderground v.1.15,2013-06-07 09:30:00,
2013-06-07 06:00:00,77.2,73.4,29.84,SSW,208,7.0,7.0,88,0.00,,,0.00,0,Wunderground v.1.15,2013-06-07 10:00:00,
2013-06-07 06:30:00,77.3,73.1,29.86,SSW,198,8.0,9.0,87,0.00,,,0.00,0,Wunderground v.1.15,2013-06-07 10:30:00,
2013-06-07 07:00:00,77.4,73.6,29.87,South,189,8.0,11.0,88,0.00,,,0.00,19,Wunderground v.1.15,2013-06-07 11:00:00,
2013-06-07 07:30:00,77.5,73.7,29.86,SSE,165,7.0,7.0,88,0.00,,,0.00,26,Wunderground v.1.15,2013-06-07 11:30:00,
2013-06-07 08:00:00,77.8,73.6,29.87,South,180,8.0,9.0,87,0.00,,,0.00,37,Wunderground v.1.15,2013-06-07 12:00:00,
2013-06-07 09:00:00,78.4,74.5,29.90,South,173,10.0,10.0,88,0.00,,,0.00,497,Wunderground v.1.15,2013-06-07 13:00:00,
2013-06-07 09:30:00,78.5,74.0,29.91,South,188,11.0,13.0,86,0.00,,,0.00,352,Wunderground v.1.15,2013-06-07 13:30:00,
2013-06-07 10:00:00,78.5,74.6,29.92,South,185,12.0,15.0,88,0.00,,,0.00,211,Wunderground v.1.15,2013-06-07 14:00:00,
2013-06-07 10:30:00,78.6,74.7,29.92,South,178,11.0,11.0,88,0.00,,,0.00,686,Wunderground v.1.15,2013-06-07 14:30:00,
2013-06-07 11:00:00,79.7,74.4,29.91,SW,216,10.0,10.0,84,0.00,,,0.00,752,Wunderground v.1.15,2013-06-07 15:00:00,
2013-06-07 11:30:00,79.5,74.2,29.92,SW,225,10.0,12.0,84,0.00,,,0.00,816,Wunderground v.1.15,2013-06-07 15:30:00,
2013-06-07 12:00:00,79.1,74.2,29.92,SW,232,10.0,10.0,85,0.00,,,0.00,789,Wunderground v.1.15,2013-06-07 16:00:00,
2013-06-07 12:30:00,79.7,74.8,29.93,South,175,8.0,8.0,85,0.00,,,0.00,503,Wunderground v.1.15,2013-06-07 16:30:00,
2013-06-07 13:00:00,79.4,74.8,29.92,SSW,199,9.0,9.0,86,0.00,,,0.00,455,Wunderground v.1.15,2013-06-07 17:00:00,
2013-06-07 13:30:00,79.3,75.4,29.91,WSW,238,8.0,8.0,88,0.00,,,0.00,485,Wunderground v.1.15,2013-06-07 17:30:00,
2013-06-07 14:00:00,79.4,74.8,29.92,South,188,8.0,11.0,86,0.00,,,0.00,575,Wunderground v.1.15,2013-06-07 18:00:00,
2013-06-07 14:30:00,79.6,75.4,29.90,SW,229,8.0,8.0,87,0.00,,,0.00,701,Wunderground v.1.15,2013-06-07 18:30:00,
2013-06-07 15:00:00,79.3,75.4,29.91,SW,216,9.0,9.0,88,0.00,,,0.00,457,Wunderground v.1.15,2013-06-07 19:00:00,
2013-06-07 15:30:00,78.7,74.2,29.91,SW,225,13.0,15.0,86,0.00,,,0.00,343,Wunderground v.1.15,2013-06-07 19:30:00,
2013-06-07 16:00:00,78.6,74.4,29.92,SW,235,13.0,13.0,87,0.00,,,0.00,450,Wunderground v.1.15,2013-06-07 20:00:00,
2013-06-07 16:30:00,79.1,74.9,29.91,SW,223,10.0,10.0,87,0.00,,,0.00,448,Wunderground v.1.15,2013-06-07 20:30:00,
2013-06-07 17:00:00,79.3,75.1,29.92,SW,231,10.0,12.0,87,0.00,,,0.00,357,Wunderground v.1.15,2013-06-07 21:00:00,
2013-06-07 17:30:00,78.5,74.6,29.91,SW,221,11.0,11.0,88,0.00,,,0.00,290,Wunderground v.1.15,2013-06-07 21:30:00,
2013-06-07 18:00:00,78.6,74.7,29.91,SSW,207,11.0,11.0,88,0.00,,,0.00,350,Wunderground v.1.15,2013-06-07 22:00:00,
2013-06-07 18:30:00,78.4,74.5,29.90,WSW,252,12.0,12.0,88,0.00,,,0.00,149,Wunderground v.1.15,2013-06-07 22:30:00,
2013-06-07 19:30:00,78.6,74.1,29.92,WSW,250,7.0,7.0,86,0.00,,,0.00,63,Wunderground v.1.15,2013-06-07 23:30:00,
2013-06-07 20:00:00,78.6,74.1,29.93,SSW,193,5.0,6.0,86,0.00,,,0.00,54,Wunderground v.1.15,2013-06-08 00:00:00,
2013-06-07 20:30:00,78.2,73.7,29.92,SSE,162,6.0,6.0,86,0.00,,,0.00,11,Wunderground v.1.15,2013-06-08 00:30:00,
2013-06-07 21:00:00,78.1,73.6,29.93,ESE,118,6.0,8.0,86,0.00,,,0.00,0,Wunderground v.1.15,2013-06-08 01:00:00,
2013-06-07 21:30:00,78.1,73.6,29.93,ESE,113,7.0,7.0,86,0.00,,,0.00,0,Wunderground v.1.15,2013-06-08 01:30:00,
2013-06-07 22:00:00,78.1,73.9,29.93,ESE,114,6.0,8.0,87,0.00,,,0.00,0,Wunderground v.1.15,2013-06-08 02:00:00,
2013-06-07 23:00:00,77.8,73.6,29.95,SE,129,8.0,8.0,87,0.00,,,0.00,0,Wunderground v.1.15,2013-06-08 03:00:00,
2013-06-07 23:30:00,77.6,73.8,29.96,SSE,155,7.0,9.0,88,0.00,,,0.00,0,Wunderground v.1.15,2013-06-08 03:30:00,